Terminal Aerodrome Forecast
Issued by NWS Denver/Boulder, CO

Home | Current Version | Previous Version | Text Only | Print | Product List | Glossary On
Versions: 1 2 3 4 5 6 7 8 9 10 11 12 13 14 15 16 17 18 19 20 21 22 23 24 25 26 27 28 29 30 31 32
000
FTUS45 KBOU 211739
TAFDEN
TAF
KDEN 211739Z 2118/2224 33007KT 2SM -SN BKN005 OVC009
     FM212000 34008KT P6SM SCT007 BKN014 OVC025
     FM212300 03008KT P6SM SCT015 BKN025 BKN040
     FM220500 15010KT P6SM SCT035 SCT060
     FM220900 21008KT 2SM BR SCT004 BKN008
     FM221400 26008KT P6SM FEW015
     FM221700 01006KT P6SM SCT050=

USA.gov is the U.S. government's official web portal to all federal, state and local government web resources and services.